sensor_id;sensor_type;location;lat;lon;timestamp;temperature;humidity
60242;SHT30;46103;52.076;113.488;2022-10-22T00:00:12;-3.08;61.48
60242;SHT30;46103;52.076;113.488;2022-10-22T00:03:16;-2.95;61.23
60242;SHT30;46103;52.076;113.488;2022-10-22T00:06:20;-2.79;60.97
60242;SHT30;46103;52.076;113.488;2022-10-22T00:09:24;-2.65;60.85
60242;SHT30;46103;52.076;113.488;2022-10-22T00:12:28;-2.55;60.68
60242;SHT30;46103;52.076;113.488;2022-10-22T00:15:31;-2.46;59.82
60242;SHT30;46103;52.076;113.488;2022-10-22T00:18:36;-2.42;59.46
60242;SHT30;46103;52.076;113.488;2022-10-22T00:21:39;-2.53;59.50
60242;SHT30;46103;52.076;113.488;2022-10-22T00:24:43;-2.90;60.32
60242;SHT30;46103;52.076;113.488;2022-10-22T00:27:47;-3.11;60.99
60242;SHT30;46103;52.076;113.488;2022-10-22T00:30:58;-3.01;61.50
60242;SHT30;46103;52.076;113.488;2022-10-22T00:34:02;-2.79;60.85
60242;SHT30;46103;52.076;113.488;2022-10-22T00:37:05;-2.66;60.42
60242;SHT30;46103;52.076;113.488;2022-10-22T00:40:10;-2.53;60.43
60242;SHT30;46103;52.076;113.488;2022-10-22T00:43:17;-2.42;60.27
60242;SHT30;46103;52.076;113.488;2022-10-22T00:46:21;-2.29;60.34
60242;SHT30;46103;52.076;113.488;2022-10-22T00:49:24;-2.11;59.93
60242;SHT30;46103;52.076;113.488;2022-10-22T00:52:29;-1.93;59.54
60242;SHT30;46103;52.076;113.488;2022-10-22T00:55:33;-1.74;58.84
60242;SHT30;46103;52.076;113.488;2022-10-22T00:58:41;-1.58;58.50
60242;SHT30;46103;52.076;113.488;2022-10-22T01:01:46;-1.51;58.30
60242;SHT30;46103;52.076;113.488;2022-10-22T01:04:49;-1.70;58.45
60242;SHT30;46103;52.076;113.488;2022-10-22T01:07:53;-1.71;58.55
60242;SHT30;46103;52.076;113.488;2022-10-22T01:11:14;-1.74;58.37
60242;SHT30;46103;52.076;113.488;2022-10-22T01:14:45;-1.86;58.27
60242;SHT30;46103;52.076;113.488;2022-10-22T01:18:08;-1.93;59.41
60242;SHT30;46103;52.076;113.488;2022-10-22T01:21:22;-1.77;58.76
60242;SHT30;46103;52.076;113.488;2022-10-22T01:31:16;-0.94;56.78
60242;SHT30;46103;52.076;113.488;2022-10-22T01:34:22;-0.81;56.38
60242;SHT30;46103;52.076;113.488;2022-10-22T01:37:32;-0.62;55.92
60242;SHT30;46103;52.076;113.488;2022-10-22T01:40:37;-0.43;55.49
60242;SHT30;46103;52.076;113.488;2022-10-22T01:43:41;-0.18;55.02
60242;SHT30;46103;52.076;113.488;2022-10-22T01:46:46;-0.05;54.70
60242;SHT30;46103;52.076;113.488;2022-10-22T01:53:43;0.31;53.58
60242;SHT30;46103;52.076;113.488;2022-10-22T01:57:30;0.47;53.20
60242;SHT30;46103;52.076;113.488;2022-10-22T02:00:37;0.62;52.83
60242;SHT30;46103;52.076;113.488;2022-10-22T02:04:00;0.78;52.40
60242;SHT30;46103;52.076;113.488;2022-10-22T02:07:17;0.96;51.97
60242;SHT30;46103;52.076;113.488;2022-10-22T02:10:23;1.17;51.47
60242;SHT30;46103;52.076;113.488;2022-10-22T02:13:30;1.27;51.05
60242;SHT30;46103;52.076;113.488;2022-10-22T02:16:41;1.41;50.70
60242;SHT30;46103;52.076;113.488;2022-10-22T02:22:55;1.54;50.44
60242;SHT30;46103;52.076;113.488;2022-10-22T02:26:02;1.72;50.28
60242;SHT30;46103;52.076;113.488;2022-10-22T02:29:17;1.79;49.88
60242;SHT30;46103;52.076;113.488;2022-10-22T02:32:25;1.96;49.64
60242;SHT30;46103;52.076;113.488;2022-10-22T02:35:31;2.08;49.41
60242;SHT30;46103;52.076;113.488;2022-10-22T02:38:35;2.05;49.39
60242;SHT30;46103;52.076;113.488;2022-10-22T02:41:39;2.12;49.33
60242;SHT30;46103;52.076;113.488;2022-10-22T02:44:43;2.10;49.46
60242;SHT30;46103;52.076;113.488;2022-10-22T02:47:47;2.08;49.60
60242;SHT30;46103;52.076;113.488;2022-10-22T02:50:54;1.77;50.36
60242;SHT30;46103;52.076;113.488;2022-10-22T02:53:58;1.77;50.59
60242;SHT30;46103;52.076;113.488;2022-10-22T02:57:01;1.83;50.63
60242;SHT30;46103;52.076;113.488;2022-10-22T03:00:07;1.72;50.84
60242;SHT30;46103;52.076;113.488;2022-10-22T03:03:11;1.70;51.05
60242;SHT30;46103;52.076;113.488;2022-10-22T03:06:14;1.77;51.29
60242;SHT30;46103;52.076;113.488;2022-10-22T03:09:18;1.82;51.71
60242;SHT30;46103;52.076;113.488;2022-10-22T03:12:26;1.94;51.69
60242;SHT30;46103;52.076;113.488;2022-10-22T03:15:30;2.05;51.51
60242;SHT30;46103;52.076;113.488;2022-10-22T03:18:34;2.13;51.58
60242;SHT30;46103;52.076;113.488;2022-10-22T03:21:43;2.33;51.32
60242;SHT30;46103;52.076;113.488;2022-10-22T03:24:52;2.50;51.21
60242;SHT30;46103;52.076;113.488;2022-10-22T03:28:02;2.64;50.51
60242;SHT30;46103;52.076;113.488;2022-10-22T03:31:07;2.82;50.07
60242;SHT30;46103;52.076;113.488;2022-10-22T03:34:10;3.03;49.10
60242;SHT30;46103;52.076;113.488;2022-10-22T03:37:15;3.16;48.44
60242;SHT30;46103;52.076;113.488;2022-10-22T03:40:20;3.34;47.93
60242;SHT30;46103;52.076;113.488;2022-10-22T03:43:23;3.37;47.87
60242;SHT30;46103;52.076;113.488;2022-10-22T03:46:27;3.57;47.04
60242;SHT30;46103;52.076;113.488;2022-10-22T03:49:30;3.75;46.47
60242;SHT30;46103;52.076;113.488;2022-10-22T03:52:36;3.92;46.24
60242;SHT30;46103;52.076;113.488;2022-10-22T03:55:40;4.02;46.20
60242;SHT30;46103;52.076;113.488;2022-10-22T03:58:44;4.06;46.63
60242;SHT30;46103;52.076;113.488;2022-10-22T04:01:48;4.03;46.78
60242;SHT30;46103;52.076;113.488;2022-10-22T04:04:51;4.08;46.82
60242;SHT30;46103;52.076;113.488;2022-10-22T04:07:55;3.92;46.85
60242;SHT30;46103;52.076;113.488;2022-10-22T04:10:58;3.85;47.66
60242;SHT30;46103;52.076;113.488;2022-10-22T04:14:02;4.16;47.00
60242;SHT30;46103;52.076;113.488;2022-10-22T04:17:06;4.57;46.01
60242;SHT30;46103;52.076;113.488;2022-10-22T04:20:09;4.95;45.13
60242;SHT30;46103;52.076;113.488;2022-10-22T04:23:12;5.01;44.78
60242;SHT30;46103;52.076;113.488;2022-10-22T04:26:17;5.26;44.47
60242;SHT30;46103;52.076;113.488;2022-10-22T04:29:22;5.60;43.80
60242;SHT30;46103;52.076;113.488;2022-10-22T04:32:26;6.05;42.80
60242;SHT30;46103;52.076;113.488;2022-10-22T04:35:30;6.47;41.93
60242;SHT30;46103;52.076;113.488;2022-10-22T04:38:39;6.85;41.42
60242;SHT30;46103;52.076;113.488;2022-10-22T04:41:42;6.91;40.77
60242;SHT30;46103;52.076;113.488;2022-10-22T04:44:45;6.85;41.07
60242;SHT30;46103;52.076;113.488;2022-10-22T04:47:49;6.73;41.31
60242;SHT30;46103;52.076;113.488;2022-10-22T04:50:53;6.69;41.47
60242;SHT30;46103;52.076;113.488;2022-10-22T04:53:57;6.54;41.76
60242;SHT30;46103;52.076;113.488;2022-10-22T04:57:00;6.32;42.11
60242;SHT30;46103;52.076;113.488;2022-10-22T05:00:05;5.91;42.92
60242;SHT30;46103;52.076;113.488;2022-10-22T05:03:09;5.74;43.72
60242;SHT30;46103;52.076;113.488;2022-10-22T05:06:12;5.58;44.10
60242;SHT30;46103;52.076;113.488;2022-10-22T05:09:18;5.51;44.20
60242;SHT30;46103;52.076;113.488;2022-10-22T05:12:22;5.29;44.46
60242;SHT30;46103;52.076;113.488;2022-10-22T05:15:26;4.95;45.21
60242;SHT30;46103;52.076;113.488;2022-10-22T05:18:33;4.52;46.43
60242;SHT30;46103;52.076;113.488;2022-10-22T05:21:39;4.16;47.33
60242;SHT30;46103;52.076;113.488;2022-10-22T05:24:42;3.95;48.18
60242;SHT30;46103;52.076;113.488;2022-10-22T05:27:49;3.79;48.66
60242;SHT30;46103;52.076;113.488;2022-10-22T05:30:57;4.03;48.30
60242;SHT30;46103;52.076;113.488;2022-10-22T05:34:02;4.20;47.90
60242;SHT30;46103;52.076;113.488;2022-10-22T05:37:06;4.63;47.02
60242;SHT30;46103;52.076;113.488;2022-10-22T05:40:10;4.91;46.09
60242;SHT30;46103;52.076;113.488;2022-10-22T05:43:21;5.16;45.65
60242;SHT30;46103;52.076;113.488;2022-10-22T05:46:27;5.19;45.10
60242;SHT30;46103;52.076;113.488;2022-10-22T05:49:31;5.84;43.66
60242;SHT30;46103;52.076;113.488;2022-10-22T05:52:36;6.58;41.97
60242;SHT30;46103;52.076;113.488;2022-10-22T05:55:40;7.07;40.60
60242;SHT30;46103;52.076;113.488;2022-10-22T05:58:44;7.56;39.57
60242;SHT30;46103;52.076;113.488;2022-10-22T06:01:47;7.64;39.27
60242;SHT30;46103;52.076;113.488;2022-10-22T06:04:52;7.57;39.26
60242;SHT30;46103;52.076;113.488;2022-10-22T06:07:56;6.99;39.97
60242;SHT30;46103;52.076;113.488;2022-10-22T06:11:00;6.77;40.64
60242;SHT30;46103;52.076;113.488;2022-10-22T06:14:04;6.66;40.82
60242;SHT30;46103;52.076;113.488;2022-10-22T06:17:08;6.61;40.97
60242;SHT30;46103;52.076;113.488;2022-10-22T06:20:14;6.37;41.19
60242;SHT30;46103;52.076;113.488;2022-10-22T06:23:18;6.19;41.57
60242;SHT30;46103;52.076;113.488;2022-10-22T06:26:22;6.18;41.82
60242;SHT30;46103;52.076;113.488;2022-10-22T06:29:27;6.04;42.38
60242;SHT30;46103;52.076;113.488;2022-10-22T06:32:30;5.94;42.74
60242;SHT30;46103;52.076;113.488;2022-10-22T06:35:35;6.01;42.43
60242;SHT30;46103;52.076;113.488;2022-10-22T06:38:38;6.16;42.07
60242;SHT30;46103;52.076;113.488;2022-10-22T06:41:43;6.30;41.91
60242;SHT30;46103;52.076;113.488;2022-10-22T06:44:50;6.46;41.51
60242;SHT30;46103;52.076;113.488;2022-10-22T06:47:54;6.60;41.05
60242;SHT30;46103;52.076;113.488;2022-10-22T06:51:01;6.77;40.54
60242;SHT30;46103;52.076;113.488;2022-10-22T06:54:05;6.81;40.55
60242;SHT30;46103;52.076;113.488;2022-10-22T06:57:09;6.88;40.80
60242;SHT30;46103;52.076;113.488;2022-10-22T07:00:13;6.94;40.94
60242;SHT30;46103;52.076;113.488;2022-10-22T07:03:16;6.98;41.16
60242;SHT30;46103;52.076;113.488;2022-10-22T07:06:22;7.02;40.81
60242;SHT30;46103;52.076;113.488;2022-10-22T07:09:26;6.90;40.67
60242;SHT30;46103;52.076;113.488;2022-10-22T07:12:32;6.84;40.86
60242;SHT30;46103;52.076;113.488;2022-10-22T07:15:36;6.83;40.98
60242;SHT30;46103;52.076;113.488;2022-10-22T07:18:40;6.76;41.39
60242;SHT30;46103;52.076;113.488;2022-10-22T07:21:45;6.77;41.39
60242;SHT30;46103;52.076;113.488;2022-10-22T07:24:49;6.85;41.40
60242;SHT30;46103;52.076;113.488;2022-10-22T07:27:52;6.87;41.34
60242;SHT30;46103;52.076;113.488;2022-10-22T07:30:56;6.71;41.62
60242;SHT30;46103;52.076;113.488;2022-10-22T07:34:01;6.54;42.06
60242;SHT30;46103;52.076;113.488;2022-10-22T07:37:04;6.50;42.39
60242;SHT30;46103;52.076;113.488;2022-10-22T07:40:09;6.39;42.71
60242;SHT30;46103;52.076;113.488;2022-10-22T07:43:13;6.19;43.20
60242;SHT30;46103;52.076;113.488;2022-10-22T07:46:17;6.21;43.26
60242;SHT30;46103;52.076;113.488;2022-10-22T07:49:20;6.26;43.23
60242;SHT30;46103;52.076;113.488;2022-10-22T07:52:25;6.34;43.14
60242;SHT30;46103;52.076;113.488;2022-10-22T07:55:29;6.40;43.07
60242;SHT30;46103;52.076;113.488;2022-10-22T07:58:33;6.39;43.60
60242;SHT30;46103;52.076;113.488;2022-10-22T08:01:37;6.23;43.73
60242;SHT30;46103;52.076;113.488;2022-10-22T08:04:41;6.13;44.08
60242;SHT30;46103;52.076;113.488;2022-10-22T08:07:45;5.78;44.14
60242;SHT30;46103;52.076;113.488;2022-10-22T08:10:51;5.32;45.09
60242;SHT30;46103;52.076;113.488;2022-10-22T08:13:59;4.93;46.06
60242;SHT30;46103;52.076;113.488;2022-10-22T08:17:02;4.60;46.62
60242;SHT30;46103;52.076;113.488;2022-10-22T08:20:09;4.49;47.06
60242;SHT30;46103;52.076;113.488;2022-10-22T08:23:15;4.49;47.05
60242;SHT30;46103;52.076;113.488;2022-10-22T08:26:20;4.47;50.26
60242;SHT30;46103;52.076;113.488;2022-10-22T08:29:24;4.54;49.06
60242;SHT30;46103;52.076;113.488;2022-10-22T08:32:31;4.52;51.13
60242;SHT30;46103;52.076;113.488;2022-10-22T08:35:35;4.50;47.45
60242;SHT30;46103;52.076;113.488;2022-10-22T08:38:38;4.52;47.42
60242;SHT30;46103;52.076;113.488;2022-10-22T08:51:39;4.19;48.18
60242;SHT30;46103;52.076;113.488;2022-10-22T08:54:57;3.94;49.15
60242;SHT30;46103;52.076;113.488;2022-10-22T09:01:41;3.61;49.98
60242;SHT30;46103;52.076;113.488;2022-10-22T09:04:53;3.43;50.47
60242;SHT30;46103;52.076;113.488;2022-10-22T09:07:59;3.31;51.07
60242;SHT30;46103;52.076;113.488;2022-10-22T09:14:17;3.01;52.41
60242;SHT30;46103;52.076;113.488;2022-10-22T09:17:26;2.87;53.08
60242;SHT30;46103;52.076;113.488;2022-10-22T09:20:54;2.77;53.21
60242;SHT30;46103;52.076;113.488;2022-10-22T09:24:12;2.66;53.40
60242;SHT30;46103;52.076;113.488;2022-10-22T09:27:29;2.57;53.70
60242;SHT30;46103;52.076;113.488;2022-10-22T09:30:35;2.48;54.98
60242;SHT30;46103;52.076;113.488;2022-10-22T09:33:39;2.43;54.60
60242;SHT30;46103;52.076;113.488;2022-10-22T09:36:44;2.25;54.59
60242;SHT30;46103;52.076;113.488;2022-10-22T09:39:54;2.01;55.11
60242;SHT30;46103;52.076;113.488;2022-10-22T09:43:02;1.83;56.07
60242;SHT30;46103;52.076;113.488;2022-10-22T09:46:21;1.72;56.40
60242;SHT30;46103;52.076;113.488;2022-10-22T09:49:29;1.61;57.27
60242;SHT30;46103;52.076;113.488;2022-10-22T09:52:35;1.60;57.64
60242;SHT30;46103;52.076;113.488;2022-10-22T09:55:40;1.64;58.01
60242;SHT30;46103;52.076;113.488;2022-10-22T09:58:45;1.70;57.66
60242;SHT30;46103;52.076;113.488;2022-10-22T10:01:57;1.72;57.61
60242;SHT30;46103;52.076;113.488;2022-10-22T10:05:32;1.75;57.56
60242;SHT30;46103;52.076;113.488;2022-10-22T10:08:35;1.79;57.62
60242;SHT30;46103;52.076;113.488;2022-10-22T10:11:45;1.83;57.47
60242;SHT30;46103;52.076;113.488;2022-10-22T10:25:21;2.01;56.30
60242;SHT30;46103;52.076;113.488;2022-10-22T10:31:44;1.81;56.80
60242;SHT30;46103;52.076;113.488;2022-10-22T10:34:59;1.71;57.06
60242;SHT30;46103;52.076;113.488;2022-10-22T10:46:06;1.41;58.12
60242;SHT30;46103;52.076;113.488;2022-10-22T10:49:02;1.34;58.40
60242;SHT30;46103;52.076;113.488;2022-10-22T10:52:35;1.33;58.15
60242;SHT30;46103;52.076;113.488;2022-10-22T10:55:57;1.23;58.84
60242;SHT30;46103;52.076;113.488;2022-10-22T11:06:15;1.00;59.86
60242;SHT30;46103;52.076;113.488;2022-10-22T11:09:43;0.93;60.14
60242;SHT30;46103;52.076;113.488;2022-10-22T11:12:50;0.89;59.93
60242;SHT30;46103;52.076;113.488;2022-10-22T11:16:27;0.84;60.41
60242;SHT30;46103;52.076;113.488;2022-10-22T11:19:49;0.74;60.34
60242;SHT30;46103;52.076;113.488;2022-10-22T11:23:10;0.64;60.67
60242;SHT30;46103;52.076;113.488;2022-10-22T11:29:46;0.62;61.21
60242;SHT30;46103;52.076;113.488;2022-10-22T11:33:00;0.58;61.57
60242;SHT30;46103;52.076;113.488;2022-10-22T11:36:05;0.53;61.64
60242;SHT30;46103;52.076;113.488;2022-10-22T11:42:51;0.40;61.01
60242;SHT30;46103;52.076;113.488;2022-10-22T11:46:27;0.33;61.40
60242;SHT30;46103;52.076;113.488;2022-10-22T11:49:43;0.26;61.56
60242;SHT30;46103;52.076;113.488;2022-10-22T11:53:01;0.19;62.08
60242;SHT30;46103;52.076;113.488;2022-10-22T11:59:39;0.09;62.61
60242;SHT30;46103;52.076;113.488;2022-10-22T12:02:43;0.00;63.42
60242;SHT30;46103;52.076;113.488;2022-10-22T12:09:17;0.00;63.05
60242;SHT30;46103;52.076;113.488;2022-10-22T12:12:22;-0.08;62.96
60242;SHT30;46103;52.076;113.488;2022-10-22T12:15:26;-0.17;63.84
60242;SHT30;46103;52.076;113.488;2022-10-22T12:19:04;-0.14;64.27
60242;SHT30;46103;52.076;113.488;2022-10-22T12:22:16;-0.10;64.14
60242;SHT30;46103;52.076;113.488;2022-10-22T12:25:28;-0.10;64.15
60242;SHT30;46103;52.076;113.488;2022-10-22T12:28:38;-0.08;64.08
60242;SHT30;46103;52.076;113.488;2022-10-22T12:31:44;-0.08;63.99
60242;SHT30;46103;52.076;113.488;2022-10-22T12:34:51;-0.12;63.98
60242;SHT30;46103;52.076;113.488;2022-10-22T12:37:57;-0.17;63.62
60242;SHT30;46103;52.076;113.488;2022-10-22T12:41:02;-0.26;63.26
60242;SHT30;46103;52.076;113.488;2022-10-22T12:44:11;-0.38;63.86
60242;SHT30;46103;52.076;113.488;2022-10-22T12:47:16;-0.46;64.23
60242;SHT30;46103;52.076;113.488;2022-10-22T12:50:28;-0.53;64.66
60242;SHT30;46103;52.076;113.488;2022-10-22T12:53:33;-0.56;64.83
60242;SHT30;46103;52.076;113.488;2022-10-22T12:56:40;-0.62;65.28
60242;SHT30;46103;52.076;113.488;2022-10-22T12:59:47;-0.63;65.37
60242;SHT30;46103;52.076;113.488;2022-10-22T13:02:52;-0.67;65.83
60242;SHT30;46103;52.076;113.488;2022-10-22T13:05:56;-0.70;65.47
60242;SHT30;46103;52.076;113.488;2022-10-22T13:09:23;-0.79;66.19
60242;SHT30;46103;52.076;113.488;2022-10-22T13:12:35;-0.79;66.14
60242;SHT30;46103;52.076;113.488;2022-10-22T13:15:40;-0.83;66.31
60242;SHT30;46103;52.076;113.488;2022-10-22T13:18:45;-0.86;66.34
60242;SHT30;46103;52.076;113.488;2022-10-22T13:21:49;-0.88;66.26
60242;SHT30;46103;52.076;113.488;2022-10-22T13:24:53;-0.94;66.40
60242;SHT30;46103;52.076;113.488;2022-10-22T13:28:20;-0.97;66.86
60242;SHT30;46103;52.076;113.488;2022-10-22T13:31:27;-1.05;66.96
60242;SHT30;46103;52.076;113.488;2022-10-22T13:34:30;-1.05;66.81
60242;SHT30;46103;52.076;113.488;2022-10-22T13:37:34;-1.14;66.82
60242;SHT30;46103;52.076;113.488;2022-10-22T13:40:41;-1.15;66.57
60242;SHT30;46103;52.076;113.488;2022-10-22T13:43:45;-1.18;66.61
60242;SHT30;46103;52.076;113.488;2022-10-22T13:46:48;-1.19;66.60
60242;SHT30;46103;52.076;113.488;2022-10-22T13:49:57;-1.27;66.83
60242;SHT30;46103;52.076;113.488;2022-10-22T13:53:05;-1.30;66.79
60242;SHT30;46103;52.076;113.488;2022-10-22T13:56:28;-1.34;67.86
60242;SHT30;46103;52.076;113.488;2022-10-22T13:59:36;-1.36;67.24
60242;SHT30;46103;52.076;113.488;2022-10-22T14:02:43;-1.43;67.42
60242;SHT30;46103;52.076;113.488;2022-10-22T14:05:51;-1.52;67.53
60242;SHT30;46103;52.076;113.488;2022-10-22T14:09:09;-1.58;67.74
60242;SHT30;46103;52.076;113.488;2022-10-22T14:12:18;-1.59;67.92
60242;SHT30;46103;52.076;113.488;2022-10-22T14:15:28;-1.62;67.44
60242;SHT30;46103;52.076;113.488;2022-10-22T14:18:37;-1.64;67.32
60242;SHT30;46103;52.076;113.488;2022-10-22T14:21:48;-1.63;66.98
60242;SHT30;46103;52.076;113.488;2022-10-22T14:24:59;-1.66;66.96
60242;SHT30;46103;52.076;113.488;2022-10-22T14:28:11;-1.64;67.26
60242;SHT30;46103;52.076;113.488;2022-10-22T14:31:18;-1.71;66.99
60242;SHT30;46103;52.076;113.488;2022-10-22T14:34:25;-1.79;67.13
60242;SHT30;46103;52.076;113.488;2022-10-22T14:37:37;-1.91;67.59
60242;SHT30;46103;52.076;113.488;2022-10-22T14:40:46;-1.98;67.90
60242;SHT30;46103;52.076;113.488;2022-10-22T14:43:52;-1.97;68.28
60242;SHT30;46103;52.076;113.488;2022-10-22T14:47:05;-1.93;67.80
60242;SHT30;46103;52.076;113.488;2022-10-22T14:50:14;-1.84;68.06
60242;SHT30;46103;52.076;113.488;2022-10-22T14:53:27;-1.76;67.75
60242;SHT30;46103;52.076;113.488;2022-10-22T14:56:36;-1.69;67.33
60242;SHT30;46103;52.076;113.488;2022-10-22T14:59:48;-1.67;67.50
60242;SHT30;46103;52.076;113.488;2022-10-22T15:03:04;-1.66;67.09
60242;SHT30;46103;52.076;113.488;2022-10-22T15:06:15;-1.70;67.01
60242;SHT30;46103;52.076;113.488;2022-10-22T15:09:23;-1.79;67.37
60242;SHT30;46103;52.076;113.488;2022-10-22T15:12:27;-1.83;67.41
60242;SHT30;46103;52.076;113.488;2022-10-22T15:15:31;-1.93;67.35
60242;SHT30;46103;52.076;113.488;2022-10-22T15:18:38;-1.97;67.56
60242;SHT30;46103;52.076;113.488;2022-10-22T15:21:42;-2.08;67.51
60242;SHT30;46103;52.076;113.488;2022-10-22T15:24:45;-2.18;67.53
60242;SHT30;46103;52.076;113.488;2022-10-22T15:27:50;-2.32;67.84
60242;SHT30;46103;52.076;113.488;2022-10-22T15:31:00;-2.36;67.72
60242;SHT30;46103;52.076;113.488;2022-10-22T15:34:03;-2.41;67.86
60242;SHT30;46103;52.076;113.488;2022-10-22T15:37:10;-2.52;68.13
60242;SHT30;46103;52.076;113.488;2022-10-22T15:40:14;-2.57;68.22
60242;SHT30;46103;52.076;113.488;2022-10-22T15:43:17;-2.59;68.31
60242;SHT30;46103;52.076;113.488;2022-10-22T15:46:20;-2.66;68.66
60242;SHT30;46103;52.076;113.488;2022-10-22T15:49:24;-2.69;68.76
60242;SHT30;46103;52.076;113.488;2022-10-22T15:52:30;-2.80;69.38
60242;SHT30;46103;52.076;113.488;2022-10-22T15:55:34;-2.83;69.11
60242;SHT30;46103;52.076;113.488;2022-10-22T15:58:38;-2.81;69.06
60242;SHT30;46103;52.076;113.488;2022-10-22T16:01:42;-2.80;69.31
60242;SHT30;46103;52.076;113.488;2022-10-22T16:04:45;-2.76;68.84
60242;SHT30;46103;52.076;113.488;2022-10-22T16:07:49;-2.67;69.32
60242;SHT30;46103;52.076;113.488;2022-10-22T16:10:53;-2.63;69.49
60242;SHT30;46103;52.076;113.488;2022-10-22T16:13:58;-2.53;69.19
60242;SHT30;46103;52.076;113.488;2022-10-22T16:17:01;-2.55;68.90
60242;SHT30;46103;52.076;113.488;2022-10-22T16:20:05;-2.56;68.68
60242;SHT30;46103;52.076;113.488;2022-10-22T16:23:09;-2.57;68.73
60242;SHT30;46103;52.076;113.488;2022-10-22T16:26:14;-2.62;68.96
60242;SHT30;46103;52.076;113.488;2022-10-22T16:29:18;-2.60;68.72
60242;SHT30;46103;52.076;113.488;2022-10-22T16:32:21;-2.69;69.14
60242;SHT30;46103;52.076;113.488;2022-10-22T16:35:26;-2.74;69.49
60242;SHT30;46103;52.076;113.488;2022-10-22T16:38:29;-2.80;69.73
60242;SHT30;46103;52.076;113.488;2022-10-22T16:41:34;-2.77;69.73
60242;SHT30;46103;52.076;113.488;2022-10-22T16:44:38;-2.74;69.59
60242;SHT30;46103;52.076;113.488;2022-10-22T16:47:42;-2.73;69.54
60242;SHT30;46103;52.076;113.488;2022-10-22T16:50:49;-2.69;69.25
60242;SHT30;46103;52.076;113.488;2022-10-22T16:53:54;-2.67;68.71
60242;SHT30;46103;52.076;113.488;2022-10-22T16:57:00;-2.74;68.07
60242;SHT30;46103;52.076;113.488;2022-10-22T17:00:05;-2.79;67.56
60242;SHT30;46103;52.076;113.488;2022-10-22T17:03:10;-2.91;67.25
60242;SHT30;46103;52.076;113.488;2022-10-22T17:06:15;-2.86;66.23
60242;SHT30;46103;52.076;113.488;2022-10-22T17:09:19;-2.84;66.49
60242;SHT30;46103;52.076;113.488;2022-10-22T17:12:22;-2.88;65.58
60242;SHT30;46103;52.076;113.488;2022-10-22T17:15:27;-3.05;66.06
60242;SHT30;46103;52.076;113.488;2022-10-22T17:18:32;-3.07;65.67
60242;SHT30;46103;52.076;113.488;2022-10-22T17:21:36;-3.18;65.04
60242;SHT30;46103;52.076;113.488;2022-10-22T17:24:41;-3.24;65.28
60242;SHT30;46103;52.076;113.488;2022-10-22T17:27:46;-3.27;65.60
60242;SHT30;46103;52.076;113.488;2022-10-22T17:31:08;-3.24;65.33
60242;SHT30;46103;52.076;113.488;2022-10-22T17:34:15;-3.21;65.15
60242;SHT30;46103;52.076;113.488;2022-10-22T17:37:18;-3.14;65.29
60242;SHT30;46103;52.076;113.488;2022-10-22T17:40:22;-3.07;65.13
60242;SHT30;46103;52.076;113.488;2022-10-22T17:43:27;-3.01;65.06
60242;SHT30;46103;52.076;113.488;2022-10-22T17:46:31;-2.95;65.41
60242;SHT30;46103;52.076;113.488;2022-10-22T17:49:35;-2.91;65.02
60242;SHT30;46103;52.076;113.488;2022-10-22T17:52:38;-2.88;64.97
60242;SHT30;46103;52.076;113.488;2022-10-22T17:55:43;-2.84;65.16
60242;SHT30;46103;52.076;113.488;2022-10-22T17:58:47;-2.87;65.56
60242;SHT30;46103;52.076;113.488;2022-10-22T18:01:50;-2.81;65.58
60242;SHT30;46103;52.076;113.488;2022-10-22T18:05:01;-2.77;65.67
60242;SHT30;46103;52.076;113.488;2022-10-22T18:08:05;-2.70;65.48
60242;SHT30;46103;52.076;113.488;2022-10-22T18:11:12;-2.66;65.38
60242;SHT30;46103;52.076;113.488;2022-10-22T18:14:18;-2.62;65.40
60242;SHT30;46103;52.076;113.488;2022-10-22T18:17:23;-2.50;65.13
60242;SHT30;46103;52.076;113.488;2022-10-22T18:20:29;-2.41;64.98
60242;SHT30;46103;52.076;113.488;2022-10-22T18:23:34;-2.32;64.51
60242;SHT30;46103;52.076;113.488;2022-10-22T18:26:37;-2.28;64.45
60242;SHT30;46103;52.076;113.488;2022-10-22T18:29:41;-2.25;64.42
60242;SHT30;46103;52.076;113.488;2022-10-22T18:32:45;-2.19;64.20
60242;SHT30;46103;52.076;113.488;2022-10-22T18:35:50;-2.14;63.90
60242;SHT30;46103;52.076;113.488;2022-10-22T18:38:57;-2.14;63.85
60242;SHT30;46103;52.076;113.488;2022-10-22T18:42:02;-2.11;63.71
60242;SHT30;46103;52.076;113.488;2022-10-22T18:45:09;-2.05;63.44
60242;SHT30;46103;52.076;113.488;2022-10-22T18:48:16;-2.02;63.36
60242;SHT30;46103;52.076;113.488;2022-10-22T18:51:21;-2.01;63.27
60242;SHT30;46103;52.076;113.488;2022-10-22T18:54:25;-1.97;63.52
60242;SHT30;46103;52.076;113.488;2022-10-22T18:57:30;-1.95;63.49
60242;SHT30;46103;52.076;113.488;2022-10-22T19:00:34;-1.97;63.49
60242;SHT30;46103;52.076;113.488;2022-10-22T19:03:39;-1.95;63.24
60242;SHT30;46103;52.076;113.488;2022-10-22T19:06:43;-1.94;63.01
60242;SHT30;46103;52.076;113.488;2022-10-22T19:09:47;-1.98;62.83
60242;SHT30;46103;52.076;113.488;2022-10-22T19:12:50;-1.97;62.91
60242;SHT30;46103;52.076;113.488;2022-10-22T19:16:01;-1.95;63.43
60242;SHT30;46103;52.076;113.488;2022-10-22T19:19:05;-1.93;63.10
60242;SHT30;46103;52.076;113.488;2022-10-22T19:22:10;-1.91;62.90
60242;SHT30;46103;52.076;113.488;2022-10-22T19:25:14;-1.84;62.74
60242;SHT30;46103;52.076;113.488;2022-10-22T19:28:18;-1.86;61.91
60242;SHT30;46103;52.076;113.488;2022-10-22T19:31:23;-1.84;61.89
60242;SHT30;46103;52.076;113.488;2022-10-22T19:34:27;-1.84;61.78
60242;SHT30;46103;52.076;113.488;2022-10-22T19:37:32;-1.83;61.90
60242;SHT30;46103;52.076;113.488;2022-10-22T19:40:36;-1.84;61.44
60242;SHT30;46103;52.076;113.488;2022-10-22T19:43:40;-1.84;61.16
60242;SHT30;46103;52.076;113.488;2022-10-22T19:46:44;-1.87;61.46
60242;SHT30;46103;52.076;113.488;2022-10-22T19:49:48;-1.94;61.74
60242;SHT30;46103;52.076;113.488;2022-10-22T19:52:53;-2.01;61.83
60242;SHT30;46103;52.076;113.488;2022-10-22T19:55:58;-2.09;61.84
60242;SHT30;46103;52.076;113.488;2022-10-22T19:59:04;-2.21;61.74
60242;SHT30;46103;52.076;113.488;2022-10-22T20:02:14;-2.31;62.22
60242;SHT30;46103;52.076;113.488;2022-10-22T20:05:18;-2.36;62.23
60242;SHT30;46103;52.076;113.488;2022-10-22T20:08:23;-2.38;62.41
60242;SHT30;46103;52.076;113.488;2022-10-22T20:11:28;-2.36;62.31
60242;SHT30;46103;52.076;113.488;2022-10-22T20:14:34;-2.35;62.72
60242;SHT30;46103;52.076;113.488;2022-10-22T20:17:39;-2.36;63.27
60242;SHT30;46103;52.076;113.488;2022-10-22T20:20:44;-2.31;62.72
60242;SHT30;46103;52.076;113.488;2022-10-22T20:23:53;-2.25;62.55